x

Fripp Nearshore (frp 2) (41033) Weather Station

10:08pm - Sun 28th May 2017 All times are EDT. -4 hours from GMT.

  • Wind
    16mph, 20mph gusts
  • Sea Temp 79°f
  • Air Temp 80°f
  • Sea Pressure 1012.3mb
  • Fripp Nearshore (frp 2)
  • Fripp Nearshore (frp 2)

More Historic Weather Station data

Upgrade to MSW Pro to gain access to the past 30 days of data for over 8000 Wavebouys and Weather Stations around the globe.

Join Pro

Comparision Forecast

View Surf forecast
   
Sun 05/28 10:08pm 16 20 mph 1012.3mb 79f 80f
9:08pm 16 22 mph 1011.7mb 79f 80f
8:08pm 18 25 mph 1011mb 79f 80f
7:08pm 16 20 mph 1011mb 79f 81f
6:08pm 13 20 mph 1011.5mb 80f 81f
5:08pm 16 20 mph 1012mb 80f 81f
4:08pm 13 18 mph 1012.5mb 80f 81f
3:08pm 13 18 mph 1013mb 80f 81f
2:08pm 11 16 mph 1013.6mb 79f 80f
1:08pm 9 13 mph 1014.2mb 79f 80f
12:08pm 7 11 mph 1014.6mb 78f 80f
11:08am 9 13 mph 1014.8mb 78f 80f
10:08am 11 13 mph 1014.6mb 78f 78f
9:08am 13 16 mph 1014.4mb 77f 77f
8:08am 11 16 mph 1013.2mb 77f 78f
7:08am 9 13 mph 1013.1mb 77f 78f
6:08am 9 13 mph 1012.1mb 77f 77f
5:08am 9 13 mph 1012.6mb 77f 78f
4:08am 11 13 mph 1012.8mb 78f 78f
3:08am 11 13 mph 1013.2mb 77f 78f
2:08am 13 18 mph 1013.4mb 78f 78f
1:08am 13 18 mph 1013.7mb 78f 78f
12:08am 16 20 mph 1014.3mb 78f 78f
Sat 05/27 11:08pm 13 16 mph 1014.4mb 78f 79f
10:08pm 11 16 mph 1014mb 78f 79f
9:08pm 16 22 mph 1013mb 78f 79f
8:08pm 18 22 mph 1012.8mb 78f 79f
7:08pm 18 22 mph 1013.1mb 78f 80f
6:08pm 18 22 mph 1013.7mb 78f 79f
5:08pm 16 22 mph 1014.5mb 78f 79f
4:08pm 16 20 mph 1015.1mb 78f 80f
3:08pm 13 20 mph 1015.8mb 78f 79f
2:08pm 13 18 mph 1016.5mb 79f 79f
1:08pm 11 13 mph 1016.9mb 78f 79f
12:08pm 9 11 mph 1016.9mb 77f 78f
11:08am 11 13 mph 1017.2mb 77f 77f
10:08am 11 18 mph 1016.8mb 77f 76f
9:08am 13 18 mph 1017mb 76f 76f
8:08am 13 16 mph 1016.9mb 76f 77f
7:08am 9 13 mph 1016.4mb 76f 76f
6:08am 9 11 mph 1015.9mb 76f 76f
5:08am 9 11 mph 1015.9mb 77f 76f
4:08am 9 11 mph 1015.8mb 77f 76f
3:08am 9 11 mph 1016mb 76f 77f
2:08am 9 11 mph 1015.9mb 77f 77f
1:08am 11 13 mph 1016mb 77f 78f
12:08am 11 13 mph 1016.1mb 77f 78f
Fri 05/26 11:08pm 11 16 mph 1015.8mb 77f 78f
10:08pm 11 16 mph 1015.1mb 77f 78f
9:08pm 13 18 mph 1014.6mb 77f 78f
8:08pm 13 18 mph 1014.5mb 77f 78f
7:08pm 16 20 mph 1014.5mb 77f 77f
6:08pm 13 20 mph 1014.8mb 77f 77f
5:08pm 16 18 mph 1015.1mb 78f 77f
4:08pm 16 20 mph 1015.2mb 78f 76f
3:08pm 13 16 mph 1016.2mb 77f 76f
2:08pm 9 13 mph 1016.5mb 77f 75f
1:08pm 9 13 mph 1016.8mb 77f 75f
12:08pm 11 16 mph 1017mb 76f 74f
11:08am 11 16 mph 1016.8mb 76f 73f
10:08am 9 13 mph 1016.8mb 76f 72f
9:08am 9 11 mph 1016.5mb 76f 71f
8:08am 11 16 mph 1016.1mb 76f 70f
7:08am 13 18 mph 1015.6mb 76f 70f
6:08am 13 18 mph 1014.8mb 76f 70f
5:08am 13 18 mph 1013.8mb 76f 70f
4:08am 13 18 mph 1013mb 76f 72f
3:08am 16 20 mph 1013mb 76f 73f
2:08am 16 22 mph 1012.8mb 76f 74f
1:08am 18 22 mph 1012.8mb 76f 75f
12:08am 18 22 mph 1012.5mb 77f 75f
Thu 05/25 11:08pm 18 22 mph 1012.1mb 77f 75f
10:08pm 18 22 mph 1011.1mb 77f 75f
9:08pm 18 25 mph 1010.3mb 77f 75f
8:08pm 16 22 mph 1009.2mb 77f 75f
7:08pm 18 27 mph 1008.1mb 77f 75f
6:08pm 20 27 mph 1007.6mb 77f 75f
5:08pm 20 29 mph 1007.3mb 77f 74f
4:08pm 20 29 mph 1007.6mb 77f 74f
3:08pm 20 29 mph 1007.5mb 77f 74f
2:08pm 22 31 mph 1007.2mb 77f 73f
1:08pm 25 36 mph 1006.7mb 77f 72f
12:08pm 22 31 mph 1006.6mb 77f 71f
11:08am 25 34 mph 1006.1mb 77f 71f
10:08am 20 27 mph 1005.9mb 77f 70f
9:08am 20 27 mph 1006.1mb 77f 70f
8:08am 22 29 mph 1005.6mb 77f 70f
7:08am 20 27 mph 1004.7mb 77f 70f
6:08am 22 31 mph 1003.4mb 77f 70f
5:08am 22 29 mph 1002.4mb 77f 71f
4:08am 25 34 mph 1001.2mb 77f 73f